Главная страница
METAR-TAF:

METAR-TAF

Аэропорты :

Молде, Норвегия

широта: 62-45N, долгота: 007-16E, высота над уровнем моря: 0 м

Текущие метеонаблюдения

Эта сводка был подготовлена 29 минут назад, в 09:50 UTC
Ветер 3 Узел от западный-юго-западный
Температура 16°C
Влажность 88%
Давление 1016 hPa
Видимость 10 км и более
небольшая облачность на высоте 3500 фута
Рассеянная облачность на высоте 4900 фута

METAR: ENML 060950Z 25003KT 9999 FEW035 BKN049 16/14 Q1016

Время: 12:19 (10:19 UTC)

Прогноз

Эта сводка был подготовлена 2 часа и 19 минут назад, в 08:00 UTC
Прогноз действительный с 06-го 09 UTC до 06-го 18 UTC
Ветер 5 Узел от юго-западный
Видимость 10 км и более
небольшая облачность на высоте 800 фута
Рассеянная облачность на высоте 6000 фута

TAF: ENML 060800Z 0609/0618 23005KT 9999 FEW008 BKN060

Метеонаблюдения и прогнозы для более 4000 аэропортов (сводки METAR и TAF).

Имеющиеся станции представлены на карте желтыми и красными точками.

Чтобы увидеть название станции, наведите на нее мышь.

Затем щелкните, чтобы увидеть метеонаблюдения и метеопрогнозы.

Управление картой: чтобы увеличить масштаб, щелкните зеленые кнопки с черным крестиком; чтобы уменьшить масштаб, щелкните зеленую кнопку с тире; для просмотра соседних карт щелкайте зеленые стрелки.


METAR-TAF: